createdAt,value
2023-11-03T00:01:34.718Z,83164.03
2023-11-03T00:04:00.986Z,83172.38
2023-11-03T00:06:27.155Z,83163.13
2023-11-03T00:08:53.318Z,83164.56
2023-11-03T00:11:19.500Z,83161.78
2023-11-03T00:13:45.713Z,83156.25
2023-11-03T00:16:11.928Z,83149.06
2023-11-03T00:18:38.156Z,83147.28
2023-11-03T00:21:04.379Z,83141.38
2023-11-03T00:23:30.539Z,83140.72
2023-11-03T00:25:56.726Z,83140.59
2023-11-03T00:28:22.911Z,83141.91
2023-11-03T00:30:49.077Z,83134.56
2023-11-03T00:33:15.330Z,83126.53
2023-11-03T00:35:41.519Z,83125.06
2023-11-03T00:38:07.722Z,83126.31
2023-11-03T00:40:33.891Z,83123.94
2023-11-03T00:43:00.179Z,83126.06
2023-11-03T00:45:26.352Z,83135.94
2023-11-03T00:47:52.558Z,83150.81
2023-11-03T00:50:18.748Z,83154.25
2023-11-03T00:52:44.923Z,83154.97
2023-11-03T00:55:11.109Z,83159.88
2023-11-03T00:57:37.324Z,83160.91
2023-11-03T01:00:03.549Z,83171.56
2023-11-03T01:02:29.760Z,83170.00
2023-11-03T01:04:56.126Z,83165.81
2023-11-03T01:07:22.329Z,83172.47
2023-11-03T01:09:48.501Z,83172.72
2023-11-03T01:12:14.686Z,83158.38
2023-11-03T01:14:40.830Z,83167.44
2023-11-03T01:17:07.048Z,83171.84
2023-11-03T01:19:33.340Z,83167.13
2023-11-03T01:21:59.626Z,83159.69
2023-11-03T01:24:25.825Z,83162.97
2023-11-03T01:26:52.003Z,83163.94
2023-11-03T01:29:18.171Z,83165.44
2023-11-03T01:31:44.341Z,83163.94
2023-11-03T01:34:10.531Z,83166.53
2023-11-03T01:36:37.138Z,83166.03
2023-11-03T01:39:03.484Z,83171.56
2023-11-03T01:41:29.650Z,83168.41
2023-11-03T01:43:55.808Z,83164.69
2023-11-03T01:46:21.962Z,83172.56
2023-11-03T01:48:48.184Z,83176.50
2023-11-03T01:51:14.367Z,83179.41
2023-11-03T01:53:40.537Z,83189.59
2023-11-03T01:56:06.808Z,83189.09
2023-11-03T01:58:32.964Z,83189.09
2023-11-03T02:00:59.139Z,83210.44
2023-11-03T02:03:25.329Z,83192.78
2023-11-03T02:05:51.505Z,83208.97
2023-11-03T02:08:17.682Z,83209.00
2023-11-03T02:10:43.831Z,83212.47
2023-11-03T02:13:10.022Z,83224.16
2023-11-03T02:15:36.432Z,83220.16
2023-11-03T02:18:02.653Z,83241.38
2023-11-03T02:20:28.826Z,83238.66
2023-11-03T02:22:54.989Z,83248.00
2023-11-03T02:25:21.179Z,83241.31
2023-11-03T02:27:47.402Z,83249.69
2023-11-03T02:30:13.589Z,83243.56
2023-11-03T02:32:39.796Z,83248.19
2023-11-03T02:35:05.997Z,83251.03
2023-11-03T02:37:32.199Z,83254.38
2023-11-03T02:39:58.382Z,83251.66
2023-11-03T02:42:24.564Z,83243.91
2023-11-03T02:44:50.711Z,83246.44
2023-11-03T02:47:16.892Z,83241.16
2023-11-03T02:49:43.051Z,83249.09
2023-11-03T02:52:09.271Z,83246.13
2023-11-03T02:54:35.492Z,83244.72
2023-11-03T02:57:01.651Z,83238.94
2023-11-03T02:59:27.911Z,83234.25
2023-11-03T03:01:54.082Z,83235.19
2023-11-03T03:04:20.317Z,83236.06
2023-11-03T03:06:46.562Z,83238.78
2023-11-03T03:09:12.887Z,83236.22
2023-11-03T03:11:39.042Z,83231.16
2023-11-03T03:14:05.235Z,83233.56
2023-11-03T03:16:31.394Z,83231.00
2023-11-03T03:18:57.625Z,83230.81
2023-11-03T03:21:23.861Z,83224.53
2023-11-03T03:23:50.034Z,83217.16
2023-11-03T03:26:16.186Z,83220.66
2023-11-03T03:28:42.342Z,83222.28
2023-11-03T03:31:08.564Z,83209.84
2023-11-03T03:33:34.913Z,83208.31
2023-11-03T03:36:01.142Z,83209.69
2023-11-03T03:38:27.311Z,83208.97
2023-11-03T03:40:53.472Z,83219.31
2023-11-03T03:43:19.664Z,83214.66
2023-11-03T03:45:45.934Z,83209.84
2023-11-03T03:48:12.149Z,83208.66
2023-11-03T03:50:38.338Z,83212.09
2023-11-03T03:53:04.488Z,83215.06
2023-11-03T03:55:30.754Z,83218.00
2023-11-03T03:57:56.935Z,83225.78
2023-11-03T04:00:23.144Z,83232.41
2023-11-03T04:02:49.357Z,83231.00
2023-11-03T04:05:15.532Z,83229.78
2023-11-03T04:07:41.732Z,83225.63
2023-11-03T04:10:07.900Z,83222.50
2023-11-03T04:12:34.058Z,83229.59
2023-11-03T04:15:00.338Z,83228.69
2023-11-03T04:17:26.500Z,83228.91
2023-11-03T04:19:53.141Z,83221.16
2023-11-03T04:22:19.303Z,83225.59
2023-11-03T04:24:45.481Z,83220.34
2023-11-03T04:27:11.662Z,83216.38
2023-11-03T04:29:37.832Z,83214.59
2023-11-03T04:32:04.001Z,83209.91
2023-11-03T04:34:30.355Z,83208.81
2023-11-03T04:36:56.650Z,83207.63
2023-11-03T04:39:22.897Z,83209.34
2023-11-03T04:41:49.163Z,83226.75
2023-11-03T04:44:15.346Z,83213.88
2023-11-03T04:46:41.502Z,83215.75
2023-11-03T04:49:07.703Z,83213.78
2023-11-03T04:51:33.890Z,83218.31
2023-11-03T04:54:00.074Z,83211.88
2023-11-03T04:56:26.240Z,83227.06
2023-11-03T04:58:52.416Z,83220.75
2023-11-03T05:01:18.557Z,83221.53
2023-11-03T05:03:44.771Z,83230.25
2023-11-03T05:06:10.957Z,83216.34
2023-11-03T05:08:37.635Z,83212.59
2023-11-03T05:11:03.786Z,83208.00
2023-11-03T05:13:29.938Z,83203.28
2023-11-03T05:15:56.137Z,83198.41
2023-11-03T05:18:22.401Z,83207.78
2023-11-03T05:20:48.598Z,83196.97
2023-11-03T05:23:14.753Z,83202.25
2023-11-03T05:25:40.919Z,83197.78
2023-11-03T05:28:07.117Z,83208.94
2023-11-03T05:30:33.378Z,83203.66
2023-11-03T05:32:59.598Z,83210.72
2023-11-03T05:35:25.816Z,83214.63
2023-11-03T05:37:51.977Z,83217.28
2023-11-03T05:40:18.221Z,83217.69
2023-11-03T05:42:44.413Z,83216.50
2023-11-03T05:45:10.637Z,83212.00
2023-11-03T05:47:36.924Z,83207.13
2023-11-03T05:50:03.287Z,83216.50
2023-11-03T05:52:29.519Z,83217.53
2023-11-03T05:54:55.685Z,83227.13
2023-11-03T05:57:21.856Z,83236.66
2023-11-03T05:59:48.028Z,83237.41
2023-11-03T06:02:14.195Z,83236.22
2023-11-03T06:04:40.345Z,83236.88
2023-11-03T06:07:06.593Z,83242.59
2023-11-03T06:09:32.802Z,83250.56
2023-11-03T06:11:58.948Z,83249.16
2023-11-03T06:14:25.116Z,83253.66
2023-11-03T06:16:51.270Z,83257.69
2023-11-03T06:19:17.560Z,83258.38
2023-11-03T06:21:43.815Z,83261.28
2023-11-03T06:24:09.995Z,83268.00
2023-11-03T06:26:36.161Z,83270.81
2023-11-03T06:29:02.344Z,83268.88
2023-11-03T06:31:28.530Z,83277.38
2023-11-03T06:33:54.836Z,83278.06
2023-11-03T06:36:21.073Z,83282.22
2023-11-03T06:38:47.258Z,83297.09
2023-11-03T06:41:13.465Z,83302.63
2023-11-03T06:43:39.619Z,83299.47
2023-11-03T06:46:05.826Z,83315.66
2023-11-03T06:48:32.038Z,83305.09
2023-11-03T06:50:58.209Z,83310.53
2023-11-03T06:53:24.411Z,83312.56
2023-11-03T06:55:50.581Z,83313.22
2023-11-03T06:58:16.880Z,83310.47
2023-11-03T07:00:43.182Z,83313.59
2023-11-03T07:03:09.431Z,83324.84
2023-11-03T07:05:35.663Z,83323.41
2023-11-03T07:08:01.848Z,83332.09
2023-11-03T07:10:28.094Z,83335.91
2023-11-03T07:12:54.291Z,83334.59
2023-11-03T07:15:20.484Z,83340.91
2023-11-03T07:17:46.695Z,83355.00
2023-11-03T07:20:12.945Z,83359.50
2023-11-03T07:22:39.144Z,83357.38
2023-11-03T07:25:05.424Z,83357.13
2023-11-03T07:27:31.641Z,83368.84
2023-11-03T07:29:57.794Z,83377.22
2023-11-03T07:32:23.968Z,83386.09
2023-11-03T07:34:51.016Z,83384.59
2023-11-03T07:37:17.546Z,83380.47
2023-11-03T07:39:43.703Z,83374.72
2023-11-03T07:42:09.851Z,83377.78
2023-11-03T07:44:36.018Z,83385.06
2023-11-03T07:47:03.632Z,83380.47
2023-11-03T07:49:31.159Z,83390.25
2023-11-03T07:51:57.349Z,83397.78
2023-11-03T07:54:23.533Z,83383.59
2023-11-03T07:56:49.723Z,83384.00
2023-11-03T07:59:15.904Z,83378.28
2023-11-03T08:01:42.053Z,83379.88
2023-11-03T08:04:08.538Z,83384.09
2023-11-03T08:06:34.895Z,83379.66
2023-11-03T08:09:01.062Z,83381.16
2023-11-03T08:11:27.223Z,83387.50
2023-11-03T08:13:53.383Z,83389.22
2023-11-03T08:16:19.591Z,83398.34
2023-11-03T08:18:45.786Z,83392.97
2023-11-03T08:21:11.974Z,83395.94
2023-11-03T08:23:38.165Z,83404.63
2023-11-03T08:26:04.323Z,83405.72
2023-11-03T08:28:30.525Z,83409.50
2023-11-03T08:30:56.741Z,83412.28
2023-11-03T08:33:22.995Z,83412.41
2023-11-03T08:35:49.183Z,83413.75
2023-11-03T08:38:15.349Z,83419.94
2023-11-03T08:40:41.524Z,83424.84
2023-11-03T08:43:07.747Z,83432.09
2023-11-03T08:45:34.008Z,83439.41
2023-11-03T08:48:00.272Z,83430.34
2023-11-03T08:50:26.460Z,83431.91
2023-11-03T08:52:52.620Z,83433.41
2023-11-03T08:55:19.000Z,83432.69
2023-11-03T08:57:45.288Z,83443.63
2023-11-03T09:00:11.450Z,83434.03
2023-11-03T09:02:37.720Z,83434.25
2023-11-03T09:05:03.961Z,83431.34
2023-11-03T09:07:30.145Z,83444.41
2023-11-03T09:09:56.321Z,83448.66
2023-11-03T09:12:22.505Z,83444.03
2023-11-03T09:14:48.681Z,83441.63
2023-11-03T09:17:14.854Z,83440.91
2023-11-03T09:19:41.093Z,83442.38
2023-11-03T09:22:07.323Z,83434.63
2023-11-03T09:24:33.507Z,83434.31
2023-11-03T09:27:06.857Z,83435.78
2023-11-03T09:29:35.238Z,83432.56
2023-11-03T09:32:01.436Z,83429.94
2023-11-03T09:34:29.244Z,83422.28
2023-11-03T09:36:56.676Z,83436.72
2023-11-03T09:39:22.880Z,83435.94
2023-11-03T09:41:49.046Z,83443.53
2023-11-03T09:44:15.198Z,83438.06
2023-11-03T09:46:41.390Z,83439.34
2023-11-03T09:49:07.588Z,83442.88
2023-11-03T09:51:33.781Z,83446.34
2023-11-03T09:53:59.957Z,83447.28
2023-11-03T09:56:26.143Z,83445.84
2023-11-03T09:58:52.323Z,83437.13
2023-11-03T10:01:18.526Z,83436.88
2023-11-03T10:03:44.862Z,83434.59
2023-11-03T10:06:11.066Z,83437.09
2023-11-03T10:08:37.235Z,83448.09
2023-11-03T10:11:03.423Z,83447.41
2023-11-03T10:13:29.612Z,83446.66
2023-11-03T10:15:55.825Z,83440.84
2023-11-03T10:18:22.041Z,83438.09
2023-11-03T10:20:48.334Z,83432.13
2023-11-03T10:23:14.538Z,83438.41
2023-11-03T10:25:40.722Z,83433.63
2023-11-03T10:28:06.962Z,83431.88
2023-11-03T10:30:33.180Z,83436.66
2023-11-03T10:32:59.409Z,83445.84
2023-11-03T10:35:25.702Z,83444.31
2023-11-03T10:37:52.021Z,83440.91
2023-11-03T10:40:18.231Z,83443.81
2023-11-03T10:42:44.450Z,83438.59
2023-11-03T10:45:10.629Z,83438.00
2023-11-03T10:47:36.829Z,83429.78
2023-11-03T10:50:03.187Z,83430.19
2023-11-03T10:52:29.733Z,83425.13
2023-11-03T10:54:56.425Z,83427.03
2023-11-03T10:59:51.768Z,83418.91
2023-11-03T11:02:17.980Z,83421.09
2023-11-03T11:04:44.141Z,83419.91
2023-11-03T11:07:10.358Z,83416.50
2023-11-03T11:09:36.531Z,83421.88
2023-11-03T11:12:02.712Z,83414.22
2023-11-03T11:14:28.873Z,83421.88
2023-11-03T11:16:55.063Z,83414.66
2023-11-03T11:19:21.310Z,83417.97
2023-11-03T11:21:48.616Z,83413.72
2023-11-03T11:24:14.783Z,83417.69
2023-11-03T11:26:40.963Z,83414.63
2023-11-03T11:29:07.194Z,83419.78
2023-11-03T11:31:33.517Z,83418.94
2023-11-03T11:33:59.825Z,83425.34
2023-11-03T11:36:26.053Z,83423.16
2023-11-03T11:38:52.230Z,83418.34
2023-11-03T11:41:18.397Z,83418.44
2023-11-03T11:43:46.899Z,83426.88
2023-11-03T11:46:13.562Z,83424.72
2023-11-03T11:48:39.946Z,83424.13
2023-11-03T11:51:06.142Z,83424.56
2023-11-03T11:53:32.312Z,83424.19
2023-11-03T11:55:58.481Z,83427.72
2023-11-03T11:58:24.672Z,83434.94
2023-11-03T12:00:50.843Z,83429.72
2023-11-03T12:03:17.190Z,83431.09
2023-11-03T12:05:43.536Z,83427.19
2023-11-03T12:08:09.774Z,83431.84
2023-11-03T12:10:36.014Z,83424.72
2023-11-03T12:13:02.368Z,83434.34
2023-11-03T12:15:28.652Z,83428.50
2023-11-03T12:17:54.924Z,83430.03
2023-11-03T12:20:21.145Z,83434.94
2023-11-03T12:22:47.311Z,83439.81
2023-11-03T12:25:13.518Z,83436.50
2023-11-03T12:27:41.105Z,83449.03
2023-11-03T12:30:07.607Z,83444.81
2023-11-03T12:32:33.812Z,83450.13
2023-11-03T12:35:00.120Z,83454.44
2023-11-03T12:37:26.374Z,83445.56
2023-11-03T12:39:52.648Z,83453.13
2023-11-03T12:42:18.864Z,83440.41
2023-11-03T12:44:45.043Z,83441.38
2023-11-03T12:47:11.209Z,83443.59
2023-11-03T12:49:37.455Z,83442.03
2023-11-03T12:52:03.705Z,83437.59
2023-11-03T12:54:29.890Z,83431.34
2023-11-03T12:56:57.418Z,83437.06
2023-11-03T12:59:23.973Z,83429.31
2023-11-03T13:01:50.201Z,83432.34
2023-11-03T13:04:16.457Z,83434.41
2023-11-03T13:06:42.687Z,83429.97
2023-11-03T13:09:08.856Z,83424.94
2023-11-03T13:11:35.020Z,83431.53
2023-11-03T13:14:01.212Z,83429.41
2023-11-03T13:16:27.442Z,83435.03
2023-11-03T13:18:53.655Z,83435.50
2023-11-03T13:21:19.821Z,83441.00
2023-11-03T13:23:45.987Z,83432.47
2023-11-03T13:26:12.169Z,83441.91
2023-11-03T13:28:38.360Z,83444.47
2023-11-03T13:31:04.639Z,83445.97
2023-11-03T13:33:30.869Z,83453.63
2023-11-03T13:35:57.074Z,83456.06
2023-11-03T13:38:23.238Z,83469.13
2023-11-03T13:40:49.475Z,83458.69
2023-11-03T13:43:15.682Z,83462.00
2023-11-03T13:45:41.863Z,83464.28
2023-11-03T13:48:08.088Z,83464.88
2023-11-03T13:50:34.412Z,83474.22
2023-11-03T13:53:00.630Z,83472.00
2023-11-03T13:55:26.856Z,83475.78
2023-11-03T13:57:53.534Z,83484.47
2023-11-03T14:00:19.866Z,83478.59
2023-11-03T14:02:46.070Z,83475.66
2023-11-03T14:05:13.061Z,83479.78
2023-11-03T14:07:39.533Z,83475.88
2023-11-03T14:10:05.761Z,83483.38
2023-11-03T14:12:31.947Z,83480.69
2023-11-03T14:14:58.179Z,83480.31
2023-11-03T14:17:24.374Z,83475.41
2023-11-03T14:19:50.563Z,83471.59
2023-11-03T14:22:16.756Z,83472.31
2023-11-03T14:24:42.939Z,83466.50
2023-11-03T14:27:09.103Z,83480.72
2023-11-03T14:29:35.315Z,83487.41
2023-11-03T14:32:01.503Z,83481.03
2023-11-03T14:34:28.733Z,83473.00
2023-11-03T14:36:55.144Z,83485.16
2023-11-03T14:39:21.322Z,83477.94
2023-11-03T14:41:47.489Z,83477.09
2023-11-03T14:44:13.776Z,83482.50
2023-11-03T14:46:40.039Z,83472.09
2023-11-03T14:49:06.358Z,83481.88
2023-11-03T14:51:32.526Z,83482.06
2023-11-03T14:53:58.679Z,83490.50
2023-11-03T14:56:24.842Z,83488.78
2023-11-03T14:58:51.020Z,83491.97
2023-11-03T15:01:17.362Z,83490.91
2023-11-03T15:03:43.598Z,83489.47
2023-11-03T15:06:09.826Z,83488.47
2023-11-03T15:08:36.040Z,83491.31
2023-11-03T15:11:02.285Z,83495.81
2023-11-03T15:13:28.502Z,83499.44
2023-11-03T15:15:54.707Z,83504.13
2023-11-03T15:18:21.102Z,83506.66
2023-11-03T15:20:47.305Z,83511.78
2023-11-03T15:23:13.472Z,83512.34
2023-11-03T15:25:39.699Z,83522.94
2023-11-03T15:28:05.933Z,83524.28
2023-11-03T15:30:32.126Z,83536.38
2023-11-03T15:32:58.338Z,83540.03
2023-11-03T15:35:24.523Z,83547.53
2023-11-03T15:37:50.697Z,83543.38
2023-11-03T15:40:16.882Z,83562.31
2023-11-03T15:42:43.061Z,83567.94
2023-11-03T15:45:09.232Z,83563.81
2023-11-03T15:47:35.482Z,83568.66
2023-11-03T15:50:01.675Z,83580.16
2023-11-03T15:52:27.860Z,83590.22
2023-11-03T15:54:54.046Z,83587.13
2023-11-03T15:57:20.229Z,83592.53
2023-11-03T15:59:46.449Z,83595.63
2023-11-03T16:02:12.660Z,83597.94
2023-11-03T16:04:38.850Z,83599.47
2023-11-03T16:07:05.077Z,83612.03
2023-11-03T16:09:31.259Z,83612.72
2023-11-03T16:11:57.416Z,83618.13
2023-11-03T16:14:23.569Z,83625.56
2023-11-03T16:16:49.737Z,83629.75
2023-11-03T16:19:16.011Z,83632.53
2023-11-03T16:21:42.236Z,83641.78
2023-11-03T16:24:08.405Z,83641.09
2023-11-03T16:26:34.567Z,83643.34
2023-11-03T16:29:00.733Z,83646.97
2023-11-03T16:31:26.948Z,83645.41
2023-11-03T16:33:53.296Z,83655.50
2023-11-03T16:36:19.513Z,83653.59
2023-11-03T16:38:45.689Z,83657.44
2023-11-03T16:41:11.846Z,83657.97
2023-11-03T16:43:38.039Z,83664.56
2023-11-03T16:46:04.301Z,83673.06
2023-11-03T16:48:30.525Z,83680.53
2023-11-03T16:50:56.737Z,83675.50
2023-11-03T16:53:22.898Z,83678.66
2023-11-03T16:55:49.125Z,83684.56
2023-11-03T16:58:15.373Z,83686.28
2023-11-03T17:00:44.980Z,83689.59
2023-11-03T17:03:11.717Z,83690.47
2023-11-03T17:05:37.944Z,83695.34
2023-11-03T17:08:04.122Z,83699.88
2023-11-03T17:10:30.334Z,83706.31
2023-11-03T17:13:01.470Z,83701.06
2023-11-03T17:15:28.300Z,83708.03
2023-11-03T17:17:54.599Z,83708.53
2023-11-03T17:20:20.815Z,83711.34
2023-11-03T17:22:46.998Z,83715.19
2023-11-03T17:25:13.241Z,83718.31
2023-11-03T17:27:39.449Z,83721.91
2023-11-03T17:30:05.620Z,83724.19
2023-11-03T17:32:31.829Z,83724.56
2023-11-03T17:34:58.001Z,83724.19
2023-11-03T17:37:25.887Z,83720.03
2023-11-03T17:39:53.360Z,83738.28
2023-11-03T17:42:19.530Z,83734.63
2023-11-03T17:44:45.706Z,83734.59
2023-11-03T17:47:11.862Z,83744.66
2023-11-03T17:49:38.130Z,83746.75
2023-11-03T17:52:04.336Z,83739.97
2023-11-03T17:54:30.520Z,83743.81
2023-11-03T17:56:56.716Z,83746.06
2023-11-03T17:59:22.871Z,83749.38
2023-11-03T18:01:49.048Z,83756.81
2023-11-03T18:04:15.272Z,83750.88
2023-11-03T18:06:41.463Z,83753.84
2023-11-03T18:09:07.635Z,83748.47
2023-11-03T18:11:33.808Z,83756.09
2023-11-03T18:13:59.975Z,83758.13
2023-11-03T18:16:26.228Z,83761.84
2023-11-03T18:18:52.494Z,83757.34
2023-11-03T18:21:18.681Z,83755.75
2023-11-03T18:23:44.897Z,83757.94
2023-11-03T18:26:11.039Z,83751.03
2023-11-03T18:28:37.260Z,83754.00
2023-11-03T18:31:03.475Z,83754.72
2023-11-03T18:33:29.728Z,83759.91
2023-11-03T18:35:55.937Z,83754.22
2023-11-03T18:38:22.098Z,83756.22
2023-11-03T18:40:48.288Z,83757.00
2023-11-03T18:43:14.596Z,83754.28
2023-11-03T18:45:40.811Z,83757.69
2023-11-03T18:48:07.016Z,83758.06
2023-11-03T18:51:23.430Z,83771.66
2023-11-03T18:59:21.528Z,83785.25
2023-11-03T19:04:42.248Z,83786.84
2023-11-03T19:08:47.937Z,83786.59
2023-11-03T19:11:14.202Z,83786.69
2023-11-03T19:13:40.376Z,83783.59
2023-11-03T19:16:06.569Z,83787.34
2023-11-03T19:18:32.765Z,83791.75
2023-11-03T19:20:59.031Z,83794.69
2023-11-03T19:23:25.216Z,83800.25
2023-11-03T19:25:51.371Z,83796.66
2023-11-03T19:28:17.535Z,83802.88
2023-11-03T19:30:43.736Z,83806.00
2023-11-03T19:33:09.985Z,83807.06
2023-11-03T19:35:36.304Z,83805.69
2023-11-03T19:38:02.505Z,83808.34
2023-11-03T19:40:28.677Z,83818.97
2023-11-03T19:42:54.846Z,83820.63
2023-11-03T19:45:21.020Z,83819.88
2023-11-03T19:47:47.225Z,83822.69
2023-11-03T19:50:13.412Z,83824.81
2023-11-03T19:52:39.604Z,83822.56
2023-11-03T19:55:05.761Z,83829.78
2023-11-03T19:57:31.991Z,83823.75
2023-11-03T19:59:58.279Z,83822.78
2023-11-03T20:02:24.440Z,83830.59
2023-11-03T20:04:50.632Z,83828.63
2023-11-03T20:07:16.842Z,83825.81
2023-11-03T20:09:43.021Z,83819.72
2023-11-03T20:12:09.272Z,83825.47
2023-11-03T20:14:35.434Z,83825.41
2023-11-03T20:17:01.609Z,83837.28
2023-11-03T20:19:27.887Z,83833.38
2023-11-03T20:21:54.125Z,83824.53
2023-11-03T20:24:20.342Z,83824.75
2023-11-03T20:26:46.541Z,83828.44
2023-11-03T20:29:12.695Z,83823.53
2023-11-03T20:31:38.838Z,83826.13
2023-11-03T20:34:05.064Z,83839.09
2023-11-03T20:36:31.282Z,83835.22
2023-11-03T20:38:57.470Z,83836.06
2023-11-03T20:41:23.623Z,83857.00
2023-11-03T20:43:49.811Z,83852.47
2023-11-03T20:46:15.984Z,83857.41
2023-11-03T20:48:42.223Z,83867.03
2023-11-03T20:51:08.475Z,83871.59
2023-11-03T20:53:34.648Z,83867.84
2023-11-03T20:56:00.804Z,83864.66
2023-11-03T20:58:26.953Z,83854.91
2023-11-03T21:00:53.184Z,83858.75
2023-11-03T21:03:19.507Z,83858.34
2023-11-03T21:05:45.845Z,83857.69
2023-11-03T21:08:12.092Z,83859.41
2023-11-03T21:10:38.286Z,83863.72
2023-11-03T21:13:04.453Z,83862.00
2023-11-03T21:15:30.673Z,83870.38
2023-11-03T21:17:56.913Z,83872.53
2023-11-03T21:20:23.132Z,83865.56
2023-11-03T21:22:49.305Z,83872.59
2023-11-03T21:25:15.478Z,83875.97
2023-11-03T21:27:41.690Z,83869.84
2023-11-03T21:30:07.887Z,83878.44
2023-11-03T21:32:34.090Z,83882.28
2023-11-03T21:35:00.287Z,83882.00
2023-11-03T21:37:26.457Z,83890.88
2023-11-03T21:39:52.640Z,83894.81
2023-11-03T21:42:18.858Z,83891.50
2023-11-03T21:44:45.052Z,83887.69
2023-11-03T21:47:11.237Z,83886.44
2023-11-03T21:49:37.405Z,83884.38
2023-11-03T21:52:03.562Z,83890.09
2023-11-03T21:54:29.734Z,83885.91
2023-11-03T21:56:55.898Z,83885.00
2023-11-03T21:59:22.075Z,83879.56
2023-11-03T22:01:48.238Z,83873.66
2023-11-03T22:04:14.518Z,83873.53
2023-11-03T22:06:40.776Z,83890.56
2023-11-03T22:09:09.930Z,83888.66
2023-11-03T22:11:36.542Z,83886.09
2023-11-03T22:14:02.709Z,83887.66
2023-11-03T22:16:28.871Z,83888.59
2023-11-03T22:18:55.201Z,83891.44
2023-11-03T22:21:21.519Z,83880.25
2023-11-03T22:23:47.688Z,83864.09
2023-11-03T22:26:16.814Z,83868.13
2023-11-03T22:28:43.689Z,83876.13
2023-11-03T22:31:09.904Z,83863.09
2023-11-03T22:33:36.159Z,83876.97
2023-11-03T22:36:02.397Z,83871.22
2023-11-03T22:38:28.582Z,83879.22
2023-11-03T22:40:54.780Z,83876.63
2023-11-03T22:43:20.949Z,83886.06
2023-11-03T22:45:47.175Z,83886.66
2023-11-03T22:48:13.501Z,83888.91
2023-11-03T22:50:39.859Z,83907.50
2023-11-03T22:53:06.031Z,83903.38
2023-11-03T22:55:32.236Z,83904.78
2023-11-03T22:57:58.441Z,83904.50
2023-11-03T23:00:24.655Z,83906.06
2023-11-03T23:02:50.828Z,83902.50
2023-11-03T23:05:17.008Z,83904.66
2023-11-03T23:07:43.295Z,83906.78
2023-11-03T23:10:09.444Z,83900.19
2023-11-03T23:12:35.635Z,83910.59
2023-11-03T23:15:01.813Z,83913.28
2023-11-03T23:17:27.994Z,83919.59
2023-11-03T23:19:54.190Z,83912.59
2023-11-03T23:22:20.587Z,83910.66
2023-11-03T23:24:46.791Z,83919.97
2023-11-03T23:27:12.983Z,83921.19
2023-11-03T23:29:39.169Z,83921.47
2023-11-03T23:32:05.319Z,83920.78
2023-11-03T23:34:31.522Z,83914.69
2023-11-03T23:36:57.741Z,83926.19
2023-11-03T23:39:23.921Z,83930.69
2023-11-03T23:41:50.116Z,83934.06
2023-11-03T23:44:16.275Z,83925.38
2023-11-03T23:46:42.422Z,83939.16
2023-11-03T23:49:08.638Z,83934.56
2023-11-03T23:51:34.916Z,83938.53
2023-11-03T23:54:01.101Z,83943.84
2023-11-03T23:56:27.255Z,83941.81
2023-11-03T23:58:53.415Z,83944.13
